createdAt,value
2018-09-28T00:02:10.873Z,100063.66
2018-09-28T00:04:38.616Z,100066.91
2018-09-28T00:07:06.181Z,100070.20
2018-09-28T00:09:33.746Z,100069.58
2018-09-28T00:12:01.318Z,100062.64
2018-09-28T00:14:28.853Z,100072.02
2018-09-28T00:16:56.411Z,100076.28
2018-09-28T00:19:23.990Z,100066.78
2018-09-28T00:21:51.556Z,100066.52
2018-09-28T00:24:19.181Z,100068.69
2018-09-28T00:26:46.721Z,100067.88
2018-09-28T00:29:14.301Z,100069.03
2018-09-28T00:31:41.917Z,100061.44
2018-09-28T00:34:09.672Z,100061.58
2018-09-28T00:36:37.261Z,100054.67
2018-09-28T00:39:04.778Z,100054.53
2018-09-28T00:41:32.693Z,100054.27
2018-09-28T00:44:00.230Z,100054.39
2018-09-28T00:46:27.779Z,100043.67
2018-09-28T00:48:55.381Z,100037.41
2018-09-28T00:51:22.973Z,100036.35
2018-09-28T00:53:50.628Z,100029.68
2018-09-28T00:56:19.185Z,100036.48
2018-09-28T00:58:46.743Z,100038.73
2018-09-28T01:01:14.481Z,100035.68
2018-09-28T01:03:42.063Z,100040.78
2018-09-28T01:06:09.645Z,100033.75
2018-09-28T01:08:37.247Z,100032.56
2018-09-28T01:11:05.270Z,100035.80
2018-09-28T01:13:32.836Z,100035.34
2018-09-28T01:16:00.403Z,100039.18
2018-09-28T01:18:27.967Z,100027.33
2018-09-28T01:20:55.546Z,100030.33
2018-09-28T01:23:23.133Z,100043.97
2018-09-28T01:25:50.673Z,100040.66
2018-09-28T01:28:19.329Z,100038.73
2018-09-28T01:30:46.895Z,100035.38
2018-09-28T01:33:14.468Z,100031.15
2018-09-28T01:35:42.012Z,100039.67
2018-09-28T01:38:09.593Z,100039.60
2018-09-28T01:40:37.150Z,100039.59
2018-09-28T01:43:04.737Z,100046.53
2018-09-28T01:45:32.305Z,100045.39
2018-09-28T01:47:59.929Z,100040.17
2018-09-28T01:50:27.465Z,100032.38
2018-09-28T01:52:54.973Z,100050.16
2018-09-28T01:55:22.547Z,100049.48
2018-09-28T01:57:50.077Z,100038.41
2018-09-28T02:00:17.820Z,100052.25
2018-09-28T02:02:45.422Z,100050.48
2018-09-28T02:05:13.101Z,100042.32
2018-09-28T02:07:40.663Z,100046.56
2018-09-28T02:10:08.201Z,100043.17
2018-09-28T02:12:35.804Z,100047.90
2018-09-28T02:15:03.395Z,100044.88
2018-09-28T02:17:30.954Z,100049.28
2018-09-28T02:19:58.752Z,100047.33
2018-09-28T02:22:26.286Z,100051.22
2018-09-28T02:24:53.836Z,100043.97
2018-09-28T02:27:21.455Z,100043.78
2018-09-28T02:29:49.001Z,100048.59
2018-09-28T02:32:16.579Z,100045.47
2018-09-28T02:34:44.109Z,100041.38
2018-09-28T02:37:11.660Z,100037.27
2018-09-28T02:39:39.205Z,100035.54
2018-09-28T02:42:06.848Z,100037.77
2018-09-28T02:44:34.371Z,100030.75
2018-09-28T02:47:01.890Z,100033.87
2018-09-28T02:49:29.480Z,100031.17
2018-09-28T02:51:57.038Z,100030.23
2018-09-28T02:54:24.587Z,100029.23
2018-09-28T02:56:52.206Z,100029.80
2018-09-28T02:59:19.773Z,100019.00
2018-09-28T03:01:47.326Z,100019.36
2018-09-28T03:04:14.907Z,100018.09
2018-09-28T03:06:42.442Z,100015.25
2018-09-28T03:09:10.046Z,100014.17
2018-09-28T03:11:37.571Z,100021.19
2018-09-28T03:14:05.284Z,100020.47
2018-09-28T03:16:32.877Z,100025.44
2018-09-28T03:19:00.546Z,100026.00
2018-09-28T03:21:28.313Z,100030.70
2018-09-28T03:23:55.870Z,100030.05
2018-09-28T03:26:23.536Z,100025.30
2018-09-28T03:28:51.096Z,100024.84
2018-09-28T03:31:18.729Z,100027.07
2018-09-28T03:33:46.285Z,100033.30
2018-09-28T03:36:13.862Z,100036.40
2018-09-28T03:38:41.431Z,100043.79
2018-09-28T03:41:08.961Z,100037.91
2018-09-28T03:43:36.521Z,100039.79
2018-09-28T03:46:04.104Z,100041.02
2018-09-28T03:48:31.652Z,100035.90
2018-09-28T03:50:59.345Z,100043.93
2018-09-28T03:53:26.895Z,100048.53
2018-09-28T03:55:54.469Z,100046.60
2018-09-28T03:58:22.041Z,100047.14
2018-09-28T04:00:50.173Z,100051.72
2018-09-28T04:03:17.845Z,100051.97
2018-09-28T04:05:45.389Z,100054.91
2018-09-28T04:08:13.115Z,100057.42
2018-09-28T04:10:40.658Z,100058.20
2018-09-28T04:13:08.219Z,100060.84
2018-09-28T04:15:35.782Z,100052.62
2018-09-28T04:18:03.566Z,100042.44
2018-09-28T04:20:31.161Z,100041.82
2018-09-28T04:22:58.694Z,100051.77
2018-09-28T04:25:26.247Z,100043.41
2018-09-28T04:27:54.001Z,100051.16
2018-09-28T04:30:21.585Z,100050.80
2018-09-28T04:32:49.201Z,100050.75
2018-09-28T04:35:16.785Z,100049.73
2018-09-28T04:37:44.355Z,100050.16
2018-09-28T04:40:11.957Z,100049.38
2018-09-28T04:42:39.528Z,100050.70
2018-09-28T04:45:07.106Z,100048.39
2018-09-28T04:47:34.669Z,100056.75
2018-09-28T04:50:02.334Z,100063.73
2018-09-28T04:52:29.896Z,100065.36
2018-09-28T04:54:57.467Z,100069.72
2018-09-28T04:57:25.053Z,100079.17
2018-09-28T04:59:52.589Z,100078.42
2018-09-28T05:02:20.129Z,100079.69
2018-09-28T05:04:47.689Z,100086.69
2018-09-28T05:07:15.289Z,100089.60
2018-09-28T05:09:42.876Z,100091.05
2018-09-28T05:12:10.394Z,100099.33
2018-09-28T05:14:38.255Z,100098.42
2018-09-28T05:17:05.864Z,100098.94
2018-09-28T05:19:33.467Z,100098.78
2018-09-28T05:22:01.004Z,100097.34
2018-09-28T05:24:28.565Z,100101.30
2018-09-28T05:26:56.164Z,100104.84
2018-09-28T05:29:23.699Z,100111.17
2018-09-28T05:31:51.337Z,100105.13
2018-09-28T05:34:19.451Z,100111.48
2018-09-28T05:36:47.144Z,100116.58
2018-09-28T05:39:15.215Z,100127.41
2018-09-28T05:41:42.861Z,100137.38
2018-09-28T05:44:10.931Z,100137.75
2018-09-28T05:46:38.514Z,100141.25
2018-09-28T05:49:06.071Z,100143.88
2018-09-28T05:51:33.677Z,100146.98
2018-09-28T05:54:01.213Z,100147.80
2018-09-28T05:56:28.805Z,100151.56
2018-09-28T05:58:56.341Z,100157.77
2018-09-28T06:01:40.607Z,100166.14
2018-09-28T06:04:08.178Z,100166.13
2018-09-28T06:06:35.745Z,100157.42
2018-09-28T06:09:03.289Z,100166.33
2018-09-28T06:11:30.874Z,100164.79
2018-09-28T06:13:58.533Z,100160.83
2018-09-28T06:16:27.478Z,100165.23
2018-09-28T06:18:55.607Z,100178.55
2018-09-28T06:21:23.635Z,100181.81
2018-09-28T06:23:51.722Z,100193.16
2018-09-28T06:26:19.775Z,100199.05
2018-09-28T06:28:47.782Z,100197.34
2018-09-28T06:31:15.756Z,100201.06
2018-09-28T06:33:43.687Z,100200.08
2018-09-28T06:36:11.648Z,100203.95
2018-09-28T06:38:39.666Z,100193.02
2018-09-28T06:41:07.563Z,100197.64
2018-09-28T06:43:35.475Z,100210.91
2018-09-28T06:46:03.054Z,100214.77
2018-09-28T06:48:30.637Z,100215.84
2018-09-28T06:50:58.262Z,100218.34
2018-09-28T06:53:25.861Z,100225.05
2018-09-28T06:55:53.477Z,100233.25
2018-09-28T06:58:21.350Z,100238.13
2018-09-28T07:00:48.853Z,100227.84
2018-09-28T07:03:16.468Z,100222.77
2018-09-28T07:05:44.140Z,100226.19
2018-09-28T07:08:11.951Z,100239.52
2018-09-28T07:10:39.537Z,100240.06
2018-09-28T07:13:07.284Z,100253.63
2018-09-28T07:15:34.980Z,100253.96
2018-09-28T07:18:02.665Z,100258.88
2018-09-28T07:20:30.234Z,100250.39
2018-09-28T07:22:57.812Z,100256.02
2018-09-28T07:25:25.366Z,100253.73
2018-09-28T07:27:52.937Z,100257.87
2018-09-28T07:30:20.719Z,100261.44
2018-09-28T07:32:48.432Z,100263.56
2018-09-28T07:35:16.214Z,100269.22
2018-09-28T07:37:43.775Z,100272.34
2018-09-28T07:40:11.362Z,100275.78
2018-09-28T07:42:38.915Z,100286.14
2018-09-28T07:45:06.530Z,100285.94
2018-09-28T07:47:34.078Z,100296.30
2018-09-28T07:50:01.680Z,100297.41
2018-09-28T07:52:29.238Z,100308.93
2018-09-28T07:54:56.773Z,100312.88
2018-09-28T07:57:24.334Z,100323.22
2018-09-28T07:59:51.864Z,100321.50
2018-09-28T08:02:19.558Z,100317.32
2018-09-28T08:04:47.133Z,100316.08
2018-09-28T08:07:14.665Z,100322.07
2018-09-28T08:09:42.229Z,100321.18
2018-09-28T08:12:09.763Z,100333.05
2018-09-28T08:14:37.381Z,100328.48
2018-09-28T08:17:05.091Z,100334.80
2018-09-28T08:19:32.625Z,100331.26
2018-09-28T08:22:00.247Z,100338.92
2018-09-28T08:24:27.859Z,100346.56
2018-09-28T08:26:55.486Z,100351.49
2018-09-28T08:29:23.061Z,100349.94
2018-09-28T08:31:50.665Z,100346.07
2018-09-28T08:34:18.230Z,100351.37
2018-09-28T08:36:45.812Z,100350.62
2018-09-28T08:39:13.543Z,100350.52
2018-09-28T08:41:41.287Z,100360.04
2018-09-28T08:44:08.820Z,100359.97
2018-09-28T08:46:36.565Z,100362.45
2018-09-28T08:49:04.364Z,100372.94
2018-09-28T08:51:31.896Z,100366.11
2018-09-28T08:53:59.531Z,100372.33
2018-09-28T08:56:27.115Z,100377.06
2018-09-28T08:58:54.695Z,100381.69
2018-09-28T09:01:22.467Z,100395.92
2018-09-28T09:03:50.022Z,100395.23
2018-09-28T09:06:17.593Z,100398.92
2018-09-28T09:08:45.106Z,100397.29
2018-09-28T09:11:12.671Z,100400.97
2018-09-28T09:13:40.200Z,100400.53
2018-09-28T09:16:07.890Z,100402.82
2018-09-28T09:18:35.473Z,100404.09
2018-09-28T09:21:03.002Z,100411.56
2018-09-28T09:23:30.584Z,100422.05
2018-09-28T09:25:58.117Z,100413.08
2018-09-28T09:28:25.672Z,100409.25
2018-09-28T09:30:53.230Z,100413.44
2018-09-28T09:33:20.761Z,100416.83
2018-09-28T09:35:48.332Z,100420.63
2018-09-28T09:38:15.893Z,100417.16
2018-09-28T09:40:43.476Z,100420.13
2018-09-28T09:43:11.055Z,100424.86
2018-09-28T09:45:38.585Z,100438.73
2018-09-28T09:48:06.181Z,100442.02
2018-09-28T09:50:33.732Z,100444.44
2018-09-28T09:53:01.320Z,100447.66
2018-09-28T09:55:28.872Z,100450.37
2018-09-28T09:57:56.562Z,100457.67
2018-09-28T10:00:24.039Z,100456.41
2018-09-28T10:03:07.248Z,100457.63
2018-09-28T10:05:34.823Z,100466.20
2018-09-28T10:08:02.363Z,100471.51
2018-09-28T10:10:29.920Z,100472.77
2018-09-28T10:12:57.473Z,100473.78
2018-09-28T10:15:25.054Z,100475.08
2018-09-28T10:17:52.578Z,100476.80
2018-09-28T10:20:20.137Z,100479.11
2018-09-28T10:22:47.707Z,100482.45
2018-09-28T10:25:15.243Z,100482.20
2018-09-28T10:27:42.876Z,100494.78
2018-09-28T10:30:10.429Z,100493.32
2018-09-28T10:32:38.001Z,100495.63
2018-09-28T10:35:05.568Z,100498.19
2018-09-28T10:37:33.178Z,100492.66
2018-09-28T10:40:00.709Z,100497.77
2018-09-28T10:42:28.254Z,100490.55
2018-09-28T10:44:55.820Z,100495.92
2018-09-28T10:47:23.339Z,100496.06
2018-09-28T10:49:50.922Z,100491.55
2018-09-28T10:52:19.567Z,100503.73
2018-09-28T10:54:47.075Z,100504.07
2018-09-28T10:57:14.670Z,100502.27
2018-09-28T10:59:42.284Z,100504.80
2018-09-28T11:02:09.872Z,100514.78
2018-09-28T11:04:37.459Z,100514.06
2018-09-28T11:07:05.025Z,100514.14
2018-09-28T11:09:32.582Z,100515.63
2018-09-28T11:12:00.150Z,100513.71
2018-09-28T11:14:27.732Z,100513.42
2018-09-28T11:16:55.441Z,100512.81
2018-09-28T11:19:22.956Z,100510.79
2018-09-28T11:21:50.540Z,100514.41
2018-09-28T11:24:18.055Z,100517.44
2018-09-28T11:26:45.634Z,100523.27
2018-09-28T11:29:13.351Z,100522.40
2018-09-28T11:31:40.903Z,100526.48
2018-09-28T11:34:08.472Z,100529.34
2018-09-28T11:36:36.134Z,100511.34
2018-09-28T11:39:03.802Z,100510.88
2018-09-28T11:41:31.583Z,100508.55
2018-09-28T11:43:59.145Z,100506.06
2018-09-28T11:46:26.683Z,100497.53
2018-09-28T11:48:54.291Z,100496.45
2018-09-28T11:51:21.862Z,100506.28
2018-09-28T11:53:49.451Z,100502.08
2018-09-28T11:56:17.004Z,100503.59
2018-09-28T11:58:44.580Z,100500.77
2018-09-28T12:01:12.142Z,100494.10
2018-09-28T12:03:39.783Z,100487.84
2018-09-28T12:06:07.343Z,100487.23
2018-09-28T12:08:34.866Z,100484.91
2018-09-28T12:11:02.469Z,100481.78
2018-09-28T12:13:30.075Z,100487.85
2018-09-28T12:15:57.593Z,100487.49
2018-09-28T12:18:25.224Z,100484.54
2018-09-28T12:20:52.722Z,100488.83
2018-09-28T12:23:20.262Z,100482.83
2018-09-28T12:25:47.850Z,100484.35
2018-09-28T12:28:15.438Z,100485.70
2018-09-28T12:30:42.996Z,100479.53
2018-09-28T12:33:10.599Z,100477.27
2018-09-28T12:35:38.227Z,100470.89
2018-09-28T12:38:05.937Z,100478.24
2018-09-28T12:40:33.473Z,100473.33
2018-09-28T12:43:01.029Z,100476.91
2018-09-28T12:45:28.707Z,100480.77
2018-09-28T12:47:56.307Z,100475.86
2018-09-28T12:50:24.015Z,100484.45
2018-09-28T12:52:51.439Z,100478.17
2018-09-28T12:55:19.014Z,100485.30
2018-09-28T12:57:46.541Z,100488.78
2018-09-28T13:00:14.309Z,100484.61
2018-09-28T13:02:41.834Z,100478.25
2018-09-28T13:05:09.422Z,100486.53
2018-09-28T13:07:37.015Z,100486.91
2018-09-28T13:10:04.613Z,100494.66
2018-09-28T13:12:32.179Z,100493.75
2018-09-28T13:14:59.961Z,100490.56
2018-09-28T13:17:27.688Z,100486.80
2018-09-28T13:19:55.252Z,100487.22
2018-09-28T13:22:22.781Z,100484.50
2018-09-28T13:24:50.466Z,100474.63
2018-09-28T13:27:17.939Z,100476.59
2018-09-28T13:29:45.517Z,100476.16
2018-09-28T13:32:13.155Z,100478.03
2018-09-28T13:34:40.720Z,100470.95
2018-09-28T13:37:08.273Z,100473.38
2018-09-28T13:39:35.919Z,100472.55
2018-09-28T13:42:03.448Z,100468.45
2018-09-28T13:44:31.084Z,100468.05
2018-09-28T13:46:58.611Z,100464.03
2018-09-28T13:49:26.351Z,100464.51
2018-09-28T13:51:54.000Z,100464.81
2018-09-28T13:54:21.568Z,100464.22
2018-09-28T13:56:49.319Z,100470.56
2018-09-28T13:59:16.755Z,100477.14
2018-09-28T14:01:44.372Z,100480.51
2018-09-28T14:04:11.931Z,100476.05
2018-09-28T14:06:39.540Z,100476.48
2018-09-28T14:09:07.086Z,100475.99
2018-09-28T14:11:34.647Z,100472.88
2018-09-28T14:14:02.194Z,100475.30
2018-09-28T14:16:29.786Z,100474.83
2018-09-28T14:18:57.357Z,100475.69
2018-09-28T14:21:25.063Z,100478.13
2018-09-28T14:23:52.594Z,100481.48
2018-09-28T14:26:20.172Z,100482.94
2018-09-28T14:28:47.726Z,100482.27
2018-09-28T14:31:15.299Z,100485.63
2018-09-28T14:33:42.937Z,100484.10
2018-09-28T14:36:10.490Z,100475.55
2018-09-28T14:38:38.052Z,100482.89
2018-09-28T14:41:05.594Z,100482.22
2018-09-28T14:43:33.160Z,100475.87
2018-09-28T14:46:00.786Z,100480.20
2018-09-28T14:48:28.413Z,100480.84
2018-09-28T14:50:55.927Z,100490.66
2018-09-28T14:53:23.490Z,100491.02
2018-09-28T14:55:51.345Z,100489.36
2018-09-28T14:58:20.112Z,100494.09
2018-09-28T15:00:47.872Z,100493.34
2018-09-28T15:03:15.248Z,100489.91
2018-09-28T15:05:43.075Z,100495.49
2018-09-28T15:08:11.187Z,100495.63
2018-09-28T15:10:39.540Z,100490.58
2018-09-28T15:13:07.264Z,100496.66
2018-09-28T15:15:34.894Z,100493.30
2018-09-28T15:18:02.472Z,100490.33
2018-09-28T15:20:30.014Z,100496.61
2018-09-28T15:22:57.626Z,100500.83
2018-09-28T15:25:25.211Z,100498.71
2018-09-28T15:27:52.742Z,100503.83
2018-09-28T15:30:20.401Z,100510.24
2018-09-28T15:32:47.870Z,100508.02
2018-09-28T15:35:15.498Z,100512.42
2018-09-28T15:37:43.023Z,100515.81
2018-09-28T15:40:10.579Z,100513.15
2018-09-28T15:42:38.229Z,100515.56
2018-09-28T15:45:05.777Z,100529.62
2018-09-28T15:47:33.448Z,100526.97
2018-09-28T15:50:00.982Z,100518.13
2018-09-28T15:52:28.575Z,100524.24
2018-09-28T15:54:56.118Z,100522.47
2018-09-28T15:57:23.700Z,100526.41
2018-09-28T15:59:51.238Z,100518.09
2018-09-28T16:02:19.738Z,100522.09
2018-09-28T16:04:47.298Z,100525.59
2018-09-28T16:07:14.825Z,100530.27
2018-09-28T16:09:42.451Z,100529.45
2018-09-28T16:12:10.014Z,100525.13
2018-09-28T16:14:37.572Z,100535.19
2018-09-28T16:17:05.104Z,100532.77
2018-09-28T16:19:32.900Z,100535.72
2018-09-28T16:22:00.665Z,100533.96
2018-09-28T16:24:28.207Z,100536.27
2018-09-28T16:26:56.045Z,100544.97
2018-09-28T16:29:23.583Z,100551.36
2018-09-28T16:31:51.179Z,100549.59
2018-09-28T16:34:19.596Z,100547.68
2018-09-28T16:36:47.298Z,100559.55
2018-09-28T16:39:14.905Z,100556.24
2018-09-28T16:41:42.493Z,100554.19
2018-09-28T16:44:10.205Z,100553.52
2018-09-28T16:46:37.986Z,100555.77
2018-09-28T16:49:05.534Z,100564.02
2018-09-28T16:51:33.315Z,100569.78
2018-09-28T16:54:01.020Z,100569.52
2018-09-28T16:56:28.580Z,100575.85
2018-09-28T16:58:56.171Z,100576.22
2018-09-28T17:01:23.711Z,100581.38
2018-09-28T17:03:51.290Z,100577.98
2018-09-28T17:06:19.582Z,100580.81
2018-09-28T17:08:47.214Z,100587.45
2018-09-28T17:11:14.786Z,100583.03
2018-09-28T17:13:42.350Z,100585.75
2018-09-28T17:16:09.928Z,100581.73
2018-09-28T17:18:37.488Z,100589.25
2018-09-28T17:21:05.057Z,100611.70
2018-09-28T17:23:32.660Z,100617.40
2018-09-28T17:26:00.185Z,100627.17
2018-09-28T17:28:27.910Z,100628.52
2018-09-28T17:30:55.492Z,100633.22
2018-09-28T17:33:23.029Z,100638.46
2018-09-28T17:35:50.632Z,100636.47
2018-09-28T17:38:18.207Z,100632.60
2018-09-28T17:40:45.782Z,100638.06
2018-09-28T17:43:13.380Z,100642.80
2018-09-28T17:45:41.002Z,100647.10
2018-09-28T17:48:08.614Z,100648.39
2018-09-28T17:50:36.163Z,100644.81
2018-09-28T17:53:03.737Z,100650.34
2018-09-28T17:55:31.304Z,100653.84
2018-09-28T17:57:58.902Z,100660.05
2018-09-28T18:00:26.493Z,100665.48
2018-09-28T18:02:54.149Z,100661.65
2018-09-28T18:05:21.896Z,100673.85
2018-09-28T18:07:49.462Z,100679.51
2018-09-28T18:10:16.986Z,100687.62
2018-09-28T18:12:44.572Z,100686.37
2018-09-28T18:15:12.147Z,100681.15
2018-09-28T18:17:39.833Z,100686.24
2018-09-28T18:20:07.419Z,100681.92
2018-09-28T18:22:35.117Z,100691.09
2018-09-28T18:25:02.650Z,100686.54
2018-09-28T18:27:30.221Z,100695.84
2018-09-28T18:29:57.758Z,100692.53
2018-09-28T18:32:25.333Z,100703.91
2018-09-28T18:34:52.864Z,100710.00
2018-09-28T18:37:20.532Z,100710.58
2018-09-28T18:39:48.076Z,100718.08
2018-09-28T18:42:15.642Z,100722.61
2018-09-28T18:44:43.218Z,100719.76
2018-09-28T18:47:10.744Z,100715.23
2018-09-28T18:49:38.379Z,100716.38
2018-09-28T18:52:05.899Z,100726.67
2018-09-28T18:54:33.557Z,100729.76
2018-09-28T18:57:01.158Z,100740.06
2018-09-28T18:59:28.747Z,100743.88
2018-09-28T19:01:56.283Z,100748.84
2018-09-28T19:04:23.974Z,100741.39
2018-09-28T19:06:51.562Z,100748.61
2018-09-28T19:09:19.078Z,100745.98
2018-09-28T19:11:46.675Z,100754.20
2018-09-28T19:14:14.311Z,100745.07
2018-09-28T19:16:41.851Z,100747.14
2018-09-28T19:19:09.371Z,100746.70
2018-09-28T19:21:37.030Z,100742.27
2018-09-28T19:24:04.733Z,100742.94
2018-09-28T19:26:32.287Z,100749.75
2018-09-28T19:28:59.861Z,100745.61
2018-09-28T19:31:27.409Z,100747.75
2018-09-28T19:33:55.061Z,100744.34
2018-09-28T19:36:22.612Z,100748.11
2018-09-28T19:38:50.157Z,100755.73
2018-09-28T19:41:17.763Z,100757.94
2018-09-28T19:43:45.314Z,100763.65
2018-09-28T19:46:12.946Z,100770.59
2018-09-28T19:48:40.501Z,100769.66
2018-09-28T19:51:08.067Z,100770.33
2018-09-28T19:53:35.687Z,100780.59
2018-09-28T19:56:03.224Z,100777.61
2018-09-28T19:58:30.794Z,100778.35
2018-09-28T20:00:58.336Z,100782.32
2018-09-28T20:03:25.890Z,100786.09
2018-09-28T20:05:53.403Z,100778.75
2018-09-28T20:08:21.001Z,100784.09
2018-09-28T20:10:48.592Z,100784.52
2018-09-28T20:13:16.171Z,100789.96
2018-09-28T20:15:43.720Z,100788.58
2018-09-28T20:18:11.299Z,100788.20
2018-09-28T20:20:38.884Z,100789.70
2018-09-28T20:23:06.453Z,100798.69
2018-09-28T20:25:34.130Z,100801.78
2018-09-28T20:28:01.911Z,100803.71
2018-09-28T20:30:29.779Z,100807.72
2018-09-28T20:32:57.622Z,100807.14
2018-09-28T20:35:25.164Z,100816.98
2018-09-28T20:37:52.732Z,100818.88
2018-09-28T20:40:20.457Z,100822.22
2018-09-28T20:42:48.502Z,100823.87
2018-09-28T20:45:16.317Z,100823.84
2018-09-28T20:47:44.012Z,100824.36
2018-09-28T20:50:11.542Z,100825.78
2018-09-28T20:52:39.743Z,100826.08
2018-09-28T20:55:07.309Z,100828.09
2018-09-28T20:57:34.880Z,100833.08
2018-09-28T21:00:02.437Z,100828.44
2018-09-28T21:02:30.017Z,100827.06
2018-09-28T21:04:57.522Z,100833.68
2018-09-28T21:07:25.308Z,100838.22
2018-09-28T21:09:52.827Z,100839.99
2018-09-28T21:12:20.401Z,100842.91
2018-09-28T21:14:47.940Z,100847.88
2018-09-28T21:17:15.718Z,100841.33
2018-09-28T21:19:43.258Z,100846.54
2018-09-28T21:22:10.861Z,100840.14
2018-09-28T21:24:38.462Z,100848.53
2018-09-28T21:27:05.990Z,100853.37
2018-09-28T21:29:33.554Z,100849.58
2018-09-28T21:32:01.094Z,100850.23
2018-09-28T21:34:28.659Z,100844.03
2018-09-28T21:36:56.212Z,100845.86
2018-09-28T21:39:23.812Z,100851.44
2018-09-28T21:41:51.490Z,100854.95
2018-09-28T21:44:19.460Z,100855.16
2018-09-28T21:46:47.037Z,100852.31
2018-09-28T21:49:14.610Z,100855.01
2018-09-28T21:51:42.186Z,100849.15
2018-09-28T21:54:09.712Z,100850.55
2018-09-28T21:56:37.271Z,100849.36
2018-09-28T21:59:04.842Z,100850.63
2018-09-28T22:01:32.353Z,100847.28
2018-09-28T22:03:59.948Z,100853.37
2018-09-28T22:06:27.467Z,100853.68
2018-09-28T22:08:55.041Z,100855.51
2018-09-28T22:11:22.554Z,100857.89
2018-09-28T22:13:50.118Z,100847.31
2018-09-28T22:16:17.661Z,100854.08
2018-09-28T22:18:45.199Z,100859.56
2018-09-28T22:21:12.787Z,100862.88
2018-09-28T22:23:40.407Z,100861.05
2018-09-28T22:26:08.022Z,100871.48
2018-09-28T22:28:35.668Z,100876.59
2018-09-28T22:31:03.261Z,100867.20
2018-09-28T22:33:30.852Z,100873.40
2018-09-28T22:35:58.485Z,100874.23
2018-09-28T22:38:26.002Z,100874.60
2018-09-28T22:40:53.535Z,100873.02
2018-09-28T22:43:21.119Z,100874.03
2018-09-28T22:45:48.845Z,100866.55
2018-09-28T22:48:16.416Z,100858.16
2018-09-28T22:50:44.001Z,100860.09
2018-09-28T22:53:11.528Z,100854.09
2018-09-28T22:55:39.106Z,100852.27
2018-09-28T22:58:06.703Z,100857.07
2018-09-28T23:00:34.248Z,100867.24
2018-09-28T23:03:01.955Z,100873.39
2018-09-28T23:05:29.525Z,100871.67
2018-09-28T23:07:57.129Z,100871.19
2018-09-28T23:10:24.650Z,100864.37
2018-09-28T23:12:52.435Z,100857.83
2018-09-28T23:15:19.946Z,100857.83
2018-09-28T23:17:47.536Z,100867.06
2018-09-28T23:20:15.080Z,100868.55
2018-09-28T23:22:42.650Z,100869.20
2018-09-28T23:25:10.314Z,100870.95
2018-09-28T23:27:37.893Z,100870.86
2018-09-28T23:30:05.428Z,100883.89
2018-09-28T23:32:32.983Z,100888.44
2018-09-28T23:35:00.518Z,100884.57
2018-09-28T23:37:28.099Z,100884.97
2018-09-28T23:39:55.626Z,100889.77
2018-09-28T23:42:23.185Z,100883.36
2018-09-28T23:44:50.714Z,100889.70
2018-09-28T23:47:18.251Z,100889.69
2018-09-28T23:49:45.815Z,100888.33
2018-09-28T23:52:13.329Z,100894.13
2018-09-28T23:54:40.897Z,100895.77
2018-09-28T23:57:08.410Z,100892.80
2018-09-28T23:59:35.977Z,100888.32
